Accueil
METAR-TAF:

METAR-TAF

Aéroports :

Le Caire, Égypte

Aéroport international du Caire

latitude: 30-08N, longitude: 031-24E, altitude: 64 m

Observation

Le bulletin a été fait il y a 14 minutes, à 12:30 UTC
Vent 12 kt de nord-est
Température 31°C
Humidité 38%
Pression 1014 hPa
Visibilité 10 km ou plus
pas de nuages en-dessous de 1500 mètres et pas de cumulonimbus.

METAR: HECA 181230Z 04012KT CAVOK 31/15 Q1014 NOSIG

Heure: 14:44 (12:44 UTC)

Prévision

Le bulletin a été fait il y a 1 heure et 44 minutes, à 11:00 UTC
Prévision valable du 18 à 12 UTC au 19 à 18 UTC
Vent 12 kt de nord/nord-est
Visibilité 10 km ou plus
pas de nuages en-dessous de 1500 mètres et pas de cumulonimbus.
Temporairement
du 19 à 00 UTC au 19 à 09 UTC
Vent 3 kt de direction variable
Visibilité: 6000 m
Temporairement
du 19 à 03 UTC au 19 à 06 UTC
Visibilité: 4000 m
brume

TAF: HECA 181100Z 1812/1918 03012KT CAVOK TEMPO 1900/1909 VRB03KT 6000 NSC TEMPO 1903/1906 4000 BR

Observations et prévisions météorologiques de plus de 4000 aéroports (messages METAR et TAF).

Les stations disponibles sont représentées par des disques jaunes et rouges sur la carte.

Passer la souris dessus pour voir le nom de la station.

Cliquer dessus pour voir les observations et prévisions météorologiques.

Pour changer de carte: cliquez sur les boutons verts avec une croix noire pour zoomer, sur le bouton vert avec un tiret pour effectuer un zoom arrière, ou sur les flèches vertes pour les cartes adjacentes.


METAR-TAF: